sensor_id;sensor_type;location;lat;lon;timestamp;P1;durP1;ratioP1;P2;durP2;ratioP2
48034;SDS011;33812;46.480;6.834;2022-11-20T00:01:09;6.50;;;1.85;;
48034;SDS011;33812;46.480;6.834;2022-11-20T00:05:12;4.25;;;1.48;;
48034;SDS011;33812;46.480;6.834;2022-11-20T00:09:15;4.95;;;1.52;;
48034;SDS011;33812;46.480;6.834;2022-11-20T00:13:18;9.50;;;2.15;;
48034;SDS011;33812;46.480;6.834;2022-11-20T00:17:20;7.28;;;1.65;;
48034;SDS011;33812;46.480;6.834;2022-11-20T00:21:22;4.28;;;1.52;;
48034;SDS011;33812;46.480;6.834;2022-11-20T00:25:27;9.93;;;1.30;;
48034;SDS011;33812;46.480;6.834;2022-11-20T00:29:30;3.83;;;1.35;;
48034;SDS011;33812;46.480;6.834;2022-11-20T00:33:32;4.72;;;1.55;;
48034;SDS011;33812;46.480;6.834;2022-11-20T00:37:34;3.10;;;1.33;;
48034;SDS011;33812;46.480;6.834;2022-11-20T00:41:37;4.30;;;1.30;;
48034;SDS011;33812;46.480;6.834;2022-11-20T00:45:39;5.35;;;1.42;;
48034;SDS011;33812;46.480;6.834;2022-11-20T00:49:41;3.80;;;1.25;;
48034;SDS011;33812;46.480;6.834;2022-11-20T00:53:43;3.67;;;1.55;;
48034;SDS011;33812;46.480;6.834;2022-11-20T00:57:47;3.25;;;1.33;;
48034;SDS011;33812;46.480;6.834;2022-11-20T01:01:49;5.90;;;1.63;;
48034;SDS011;33812;46.480;6.834;2022-11-20T01:05:51;5.50;;;1.25;;
48034;SDS011;33812;46.480;6.834;2022-11-20T01:09:52;8.23;;;2.05;;
48034;SDS011;33812;46.480;6.834;2022-11-20T01:13:56;4.35;;;1.30;;
48034;SDS011;33812;46.480;6.834;2022-11-20T01:22:00;3.28;;;1.15;;
48034;SDS011;33812;46.480;6.834;2022-11-20T01:26:05;5.03;;;1.60;;
48034;SDS011;33812;46.480;6.834;2022-11-20T01:30:10;2.17;;;1.20;;
48034;SDS011;33812;46.480;6.834;2022-11-20T01:34:14;3.08;;;1.00;;
48034;SDS011;33812;46.480;6.834;2022-11-20T01:38:18;3.78;;;1.13;;
48034;SDS011;33812;46.480;6.834;2022-11-20T01:42:25;3.17;;;1.00;;
48034;SDS011;33812;46.480;6.834;2022-11-20T01:46:47;4.97;;;1.20;;
48034;SDS011;33812;46.480;6.834;2022-11-20T01:50:57;3.67;;;0.90;;
48034;SDS011;33812;46.480;6.834;2022-11-20T01:55:00;3.25;;;1.15;;
48034;SDS011;33812;46.480;6.834;2022-11-20T01:59:05;4.53;;;1.25;;
48034;SDS011;33812;46.480;6.834;2022-11-20T02:03:11;3.30;;;1.20;;
48034;SDS011;33812;46.480;6.834;2022-11-20T02:07:15;7.38;;;1.60;;
48034;SDS011;33812;46.480;6.834;2022-11-20T02:11:18;5.80;;;1.50;;
48034;SDS011;33812;46.480;6.834;2022-11-20T02:15:21;5.03;;;1.65;;
48034;SDS011;33812;46.480;6.834;2022-11-20T02:19:26;6.30;;;2.08;;
48034;SDS011;33812;46.480;6.834;2022-11-20T02:23:30;5.88;;;1.65;;
48034;SDS011;33812;46.480;6.834;2022-11-20T02:27:39;5.75;;;1.77;;
48034;SDS011;33812;46.480;6.834;2022-11-20T02:31:41;6.47;;;1.63;;
48034;SDS011;33812;46.480;6.834;2022-11-20T02:35:44;7.20;;;2.00;;
48034;SDS011;33812;46.480;6.834;2022-11-20T02:39:47;4.40;;;1.45;;
48034;SDS011;33812;46.480;6.834;2022-11-20T02:43:52;4.30;;;1.30;;
48034;SDS011;33812;46.480;6.834;2022-11-20T02:47:54;4.15;;;1.38;;
48034;SDS011;33812;46.480;6.834;2022-11-20T02:51:56;6.47;;;1.73;;
48034;SDS011;33812;46.480;6.834;2022-11-20T02:55:57;4.68;;;1.13;;
48034;SDS011;33812;46.480;6.834;2022-11-20T03:00:00;4.07;;;1.40;;
48034;SDS011;33812;46.480;6.834;2022-11-20T03:04:04;5.87;;;1.50;;
48034;SDS011;33812;46.480;6.834;2022-11-20T03:08:06;6.53;;;1.50;;
48034;SDS011;33812;46.480;6.834;2022-11-20T03:12:08;5.65;;;1.42;;
48034;SDS011;33812;46.480;6.834;2022-11-20T03:16:11;4.35;;;1.35;;
48034;SDS011;33812;46.480;6.834;2022-11-20T03:20:15;2.55;;;1.05;;
48034;SDS011;33812;46.480;6.834;2022-11-20T03:24:17;2.33;;;1.05;;
48034;SDS011;33812;46.480;6.834;2022-11-20T03:28:19;3.42;;;1.30;;
48034;SDS011;33812;46.480;6.834;2022-11-20T03:32:22;4.28;;;1.20;;
48034;SDS011;33812;46.480;6.834;2022-11-20T03:36:24;3.03;;;1.10;;
48034;SDS011;33812;46.480;6.834;2022-11-20T03:40:26;3.10;;;1.17;;
48034;SDS011;33812;46.480;6.834;2022-11-20T03:44:27;4.38;;;1.30;;
48034;SDS011;33812;46.480;6.834;2022-11-20T03:48:32;4.05;;;1.35;;
48034;SDS011;33812;46.480;6.834;2022-11-20T03:52:34;3.63;;;1.20;;
48034;SDS011;33812;46.480;6.834;2022-11-20T03:56:36;3.05;;;1.10;;
48034;SDS011;33812;46.480;6.834;2022-11-20T04:00:39;3.20;;;0.93;;
48034;SDS011;33812;46.480;6.834;2022-11-20T04:04:42;6.00;;;1.58;;
48034;SDS011;33812;46.480;6.834;2022-11-20T04:08:44;7.22;;;2.08;;
48034;SDS011;33812;46.480;6.834;2022-11-20T04:12:46;3.50;;;1.17;;
48034;SDS011;33812;46.480;6.834;2022-11-20T04:16:48;4.57;;;1.55;;
48034;SDS011;33812;46.480;6.834;2022-11-20T04:20:51;4.53;;;1.20;;
48034;SDS011;33812;46.480;6.834;2022-11-20T04:24:53;2.72;;;0.95;;
48034;SDS011;33812;46.480;6.834;2022-11-20T04:28:55;7.07;;;1.60;;
48034;SDS011;33812;46.480;6.834;2022-11-20T04:32:57;3.28;;;0.80;;
48034;SDS011;33812;46.480;6.834;2022-11-20T04:37:00;5.72;;;1.50;;
48034;SDS011;33812;46.480;6.834;2022-11-20T04:41:04;2.58;;;1.08;;
48034;SDS011;33812;46.480;6.834;2022-11-20T04:45:07;5.75;;;1.20;;
48034;SDS011;33812;46.480;6.834;2022-11-20T04:49:10;6.95;;;2.08;;
48034;SDS011;33812;46.480;6.834;2022-11-20T04:53:14;2.63;;;0.93;;
48034;SDS011;33812;46.480;6.834;2022-11-20T04:57:16;2.17;;;1.08;;
48034;SDS011;33812;46.480;6.834;2022-11-20T05:01:18;5.43;;;1.33;;
48034;SDS011;33812;46.480;6.834;2022-11-20T05:05:22;1.30;;;0.60;;
48034;SDS011;33812;46.480;6.834;2022-11-20T05:09:25;5.28;;;0.95;;
48034;SDS011;33812;46.480;6.834;2022-11-20T05:13:27;4.93;;;1.17;;
48034;SDS011;33812;46.480;6.834;2022-11-20T05:17:29;10.15;;;2.58;;
48034;SDS011;33812;46.480;6.834;2022-11-20T05:21:30;4.55;;;1.10;;
48034;SDS011;33812;46.480;6.834;2022-11-20T05:25:34;4.35;;;0.65;;
48034;SDS011;33812;46.480;6.834;2022-11-20T05:29:35;2.88;;;0.82;;
48034;SDS011;33812;46.480;6.834;2022-11-20T05:33:39;3.00;;;0.93;;
48034;SDS011;33812;46.480;6.834;2022-11-20T05:37:42;7.18;;;1.35;;
48034;SDS011;33812;46.480;6.834;2022-11-20T05:41:45;4.72;;;0.70;;
48034;SDS011;33812;46.480;6.834;2022-11-20T05:46:07;7.70;;;1.65;;
48034;SDS011;33812;46.480;6.834;2022-11-20T05:50:10;7.72;;;1.02;;
48034;SDS011;33812;46.480;6.834;2022-11-20T05:54:11;7.35;;;1.05;;
48034;SDS011;33812;46.480;6.834;2022-11-20T05:58:14;3.50;;;0.90;;
48034;SDS011;33812;46.480;6.834;2022-11-20T06:02:16;5.28;;;1.30;;
48034;SDS011;33812;46.480;6.834;2022-11-20T06:06:19;3.85;;;0.75;;
48034;SDS011;33812;46.480;6.834;2022-11-20T06:10:21;5.78;;;1.05;;
48034;SDS011;33812;46.480;6.834;2022-11-20T06:14:25;6.75;;;1.67;;
48034;SDS011;33812;46.480;6.834;2022-11-20T06:18:27;3.77;;;0.77;;
48034;SDS011;33812;46.480;6.834;2022-11-20T06:22:29;8.98;;;1.80;;
48034;SDS011;33812;46.480;6.834;2022-11-20T06:26:30;3.70;;;1.15;;
48034;SDS011;33812;46.480;6.834;2022-11-20T06:30:34;5.03;;;1.17;;
48034;SDS011;33812;46.480;6.834;2022-11-20T06:38:35;7.82;;;0.90;;
48034;SDS011;33812;46.480;6.834;2022-11-20T06:42:38;7.68;;;1.02;;
48034;SDS011;33812;46.480;6.834;2022-11-20T06:46:40;12.95;;;0.93;;
48034;SDS011;33812;46.480;6.834;2022-11-20T06:50:41;7.22;;;1.13;;
48034;SDS011;33812;46.480;6.834;2022-11-20T06:54:45;17.20;;;3.30;;
48034;SDS011;33812;46.480;6.834;2022-11-20T06:58:46;25.73;;;13.48;;
48034;SDS011;33812;46.480;6.834;2022-11-20T07:02:48;161.65;;;33.15;;
48034;SDS011;33812;46.480;6.834;2022-11-20T07:06:50;121.15;;;24.15;;
48034;SDS011;33812;46.480;6.834;2022-11-20T07:10:58;84.03;;;18.45;;
48034;SDS011;33812;46.480;6.834;2022-11-20T07:15:00;60.75;;;15.43;;
48034;SDS011;33812;46.480;6.834;2022-11-20T07:19:02;50.35;;;13.73;;
48034;SDS011;33812;46.480;6.834;2022-11-20T07:23:04;59.67;;;12.68;;
48034;SDS011;33812;46.480;6.834;2022-11-20T07:27:07;36.92;;;11.43;;
48034;SDS011;33812;46.480;6.834;2022-11-20T07:31:09;38.78;;;9.98;;
48034;SDS011;33812;46.480;6.834;2022-11-20T07:35:12;29.83;;;8.80;;
48034;SDS011;33812;46.480;6.834;2022-11-20T07:39:13;31.80;;;7.97;;
48034;SDS011;33812;46.480;6.834;2022-11-20T07:43:17;32.25;;;7.75;;
48034;SDS011;33812;46.480;6.834;2022-11-20T07:47:18;31.35;;;8.45;;
48034;SDS011;33812;46.480;6.834;2022-11-20T07:51:21;34.28;;;7.07;;
48034;SDS011;33812;46.480;6.834;2022-11-20T07:55:22;18.88;;;6.35;;
48034;SDS011;33812;46.480;6.834;2022-11-20T07:59:27;38.83;;;7.10;;
48034;SDS011;33812;46.480;6.834;2022-11-20T08:03:32;22.65;;;5.47;;
48034;SDS011;33812;46.480;6.834;2022-11-20T08:07:37;21.83;;;5.97;;
48034;SDS011;33812;46.480;6.834;2022-11-20T08:11:39;19.75;;;5.95;;
48034;SDS011;33812;46.480;6.834;2022-11-20T08:16:00;24.23;;;5.13;;
48034;SDS011;33812;46.480;6.834;2022-11-20T08:20:03;16.15;;;4.72;;
48034;SDS011;33812;46.480;6.834;2022-11-20T08:24:06;27.42;;;4.80;;
48034;SDS011;33812;46.480;6.834;2022-11-20T08:28:09;14.70;;;4.20;;
48034;SDS011;33812;46.480;6.834;2022-11-20T08:32:13;18.17;;;4.30;;
48034;SDS011;33812;46.480;6.834;2022-11-20T08:36:14;14.40;;;3.33;;
48034;SDS011;33812;46.480;6.834;2022-11-20T08:40:17;18.83;;;3.97;;
48034;SDS011;33812;46.480;6.834;2022-11-20T08:44:18;18.63;;;3.58;;
48034;SDS011;33812;46.480;6.834;2022-11-20T08:48:21;13.60;;;3.67;;
48034;SDS011;33812;46.480;6.834;2022-11-20T08:52:23;16.13;;;3.20;;
48034;SDS011;33812;46.480;6.834;2022-11-20T08:56:27;22.63;;;3.58;;
48034;SDS011;33812;46.480;6.834;2022-11-20T09:00:29;14.88;;;3.17;;
48034;SDS011;33812;46.480;6.834;2022-11-20T09:04:32;14.65;;;2.88;;
48034;SDS011;33812;46.480;6.834;2022-11-20T09:08:34;18.48;;;2.72;;
48034;SDS011;33812;46.480;6.834;2022-11-20T09:12:37;9.90;;;2.53;;
48034;SDS011;33812;46.480;6.834;2022-11-20T09:16:39;12.50;;;2.85;;
48034;SDS011;33812;46.480;6.834;2022-11-20T09:20:42;19.58;;;3.45;;
48034;SDS011;33812;46.480;6.834;2022-11-20T09:24:44;8.10;;;2.15;;
48034;SDS011;33812;46.480;6.834;2022-11-20T09:28:46;13.48;;;2.15;;
48034;SDS011;33812;46.480;6.834;2022-11-20T09:32:47;10.43;;;2.95;;
48034;SDS011;33812;46.480;6.834;2022-11-20T09:36:51;7.15;;;2.08;;
48034;SDS011;33812;46.480;6.834;2022-11-20T09:40:54;8.05;;;2.33;;
48034;SDS011;33812;46.480;6.834;2022-11-20T09:45:05;8.52;;;2.20;;
48034;SDS011;33812;46.480;6.834;2022-11-20T09:49:19;10.80;;;3.58;;
48034;SDS011;33812;46.480;6.834;2022-11-20T09:53:33;8.20;;;2.10;;
48034;SDS011;33812;46.480;6.834;2022-11-20T09:57:44;6.38;;;2.35;;
48034;SDS011;33812;46.480;6.834;2022-11-20T10:01:49;6.70;;;2.30;;
48034;SDS011;33812;46.480;6.834;2022-11-20T10:05:52;6.82;;;2.15;;
48034;SDS011;33812;46.480;6.834;2022-11-20T10:09:57;7.85;;;1.90;;
48034;SDS011;33812;46.480;6.834;2022-11-20T10:14:00;7.68;;;2.20;;
48034;SDS011;33812;46.480;6.834;2022-11-20T10:18:18;5.30;;;1.50;;
48034;SDS011;33812;46.480;6.834;2022-11-20T10:22:36;4.55;;;1.80;;
48034;SDS011;33812;46.480;6.834;2022-11-20T10:26:51;4.85;;;1.60;;
48034;SDS011;33812;46.480;6.834;2022-11-20T10:31:04;8.38;;;1.65;;
48034;SDS011;33812;46.480;6.834;2022-11-20T10:35:16;6.35;;;2.38;;
48034;SDS011;33812;46.480;6.834;2022-11-20T10:39:24;5.10;;;1.30;;
48034;SDS011;33812;46.480;6.834;2022-11-20T10:43:38;7.05;;;2.03;;
48034;SDS011;33812;46.480;6.834;2022-11-20T10:47:41;6.55;;;1.52;;
48034;SDS011;33812;46.480;6.834;2022-11-20T10:51:46;7.57;;;1.92;;
48034;SDS011;33812;46.480;6.834;2022-11-20T10:56:02;8.75;;;1.52;;
48034;SDS011;33812;46.480;6.834;2022-11-20T11:00:11;7.72;;;1.50;;
48034;SDS011;33812;46.480;6.834;2022-11-20T11:04:18;7.93;;;1.67;;
48034;SDS011;33812;46.480;6.834;2022-11-20T11:08:32;4.15;;;1.30;;
48034;SDS011;33812;46.480;6.834;2022-11-20T11:12:38;2.50;;;0.82;;
48034;SDS011;33812;46.480;6.834;2022-11-20T11:16:50;4.15;;;1.23;;
48034;SDS011;33812;46.480;6.834;2022-11-20T11:20:53;4.57;;;1.45;;
48034;SDS011;33812;46.480;6.834;2022-11-20T11:24:56;8.50;;;1.52;;
48034;SDS011;33812;46.480;6.834;2022-11-20T11:28:58;1.50;;;0.95;;
48034;SDS011;33812;46.480;6.834;2022-11-20T11:33:05;7.20;;;1.90;;
48034;SDS011;33812;46.480;6.834;2022-11-20T11:37:10;10.57;;;1.40;;
48034;SDS011;33812;46.480;6.834;2022-11-20T11:41:17;6.70;;;1.45;;
48034;SDS011;33812;46.480;6.834;2022-11-20T11:45:22;4.70;;;1.38;;
48034;SDS011;33812;46.480;6.834;2022-11-20T11:49:26;6.78;;;1.58;;
48034;SDS011;33812;46.480;6.834;2022-11-20T11:53:27;6.68;;;1.50;;
48034;SDS011;33812;46.480;6.834;2022-11-20T11:57:33;11.80;;;1.30;;
48034;SDS011;33812;46.480;6.834;2022-11-20T12:01:43;11.27;;;1.58;;
48034;SDS011;33812;46.480;6.834;2022-11-20T12:05:50;11.88;;;1.38;;
48034;SDS011;33812;46.480;6.834;2022-11-20T12:09:58;24.33;;;14.18;;
48034;SDS011;33812;46.480;6.834;2022-11-20T12:14:04;43.75;;;16.58;;
48034;SDS011;33812;46.480;6.834;2022-11-20T12:18:15;60.38;;;21.98;;
48034;SDS011;33812;46.480;6.834;2022-11-20T12:22:24;61.00;;;22.27;;
48034;SDS011;33812;46.480;6.834;2022-11-20T12:26:40;59.88;;;19.77;;
48034;SDS011;33812;46.480;6.834;2022-11-20T12:31:01;51.53;;;17.23;;
48034;SDS011;33812;46.480;6.834;2022-11-20T12:35:19;49.38;;;16.75;;
48034;SDS011;33812;46.480;6.834;2022-11-20T12:39:38;46.80;;;16.63;;
48034;SDS011;33812;46.480;6.834;2022-11-20T12:43:43;28.27;;;12.95;;
48034;SDS011;33812;46.480;6.834;2022-11-20T12:52:50;28.48;;;9.57;;
48034;SDS011;33812;46.480;6.834;2022-11-20T12:57:00;32.05;;;9.05;;
48034;SDS011;33812;46.480;6.834;2022-11-20T13:01:15;28.58;;;7.57;;
48034;SDS011;33812;46.480;6.834;2022-11-20T13:05:43;29.60;;;7.20;;
48034;SDS011;33812;46.480;6.834;2022-11-20T13:09:52;19.35;;;5.45;;
48034;SDS011;33812;46.480;6.834;2022-11-20T13:18:25;14.65;;;4.82;;
48034;SDS011;33812;46.480;6.834;2022-11-20T13:22:41;18.77;;;4.38;;
48034;SDS011;33812;46.480;6.834;2022-11-20T13:26:44;25.77;;;4.53;;
48034;SDS011;33812;46.480;6.834;2022-11-20T13:30:50;18.05;;;5.25;;
48034;SDS011;33812;46.480;6.834;2022-11-20T13:34:53;17.35;;;4.65;;
48034;SDS011;33812;46.480;6.834;2022-11-20T13:38:56;14.30;;;3.70;;
48034;SDS011;33812;46.480;6.834;2022-11-20T13:43:07;22.42;;;4.53;;
48034;SDS011;33812;46.480;6.834;2022-11-20T13:47:21;14.38;;;3.67;;
48034;SDS011;33812;46.480;6.834;2022-11-20T13:51:27;14.70;;;2.75;;
48034;SDS011;33812;46.480;6.834;2022-11-20T13:55:36;10.25;;;3.38;;
48034;SDS011;33812;46.480;6.834;2022-11-20T13:59:46;16.40;;;3.15;;
48034;SDS011;33812;46.480;6.834;2022-11-20T14:03:57;14.73;;;3.10;;
48034;SDS011;33812;46.480;6.834;2022-11-20T14:07:59;13.70;;;2.83;;
48034;SDS011;33812;46.480;6.834;2022-11-20T14:12:13;8.98;;;2.55;;
48034;SDS011;33812;46.480;6.834;2022-11-20T14:16:19;10.80;;;2.42;;
48034;SDS011;33812;46.480;6.834;2022-11-20T14:20:23;7.82;;;2.67;;
48034;SDS011;33812;46.480;6.834;2022-11-20T14:24:27;10.30;;;3.22;;
48034;SDS011;33812;46.480;6.834;2022-11-20T14:28:29;8.18;;;2.55;;
48034;SDS011;33812;46.480;6.834;2022-11-20T14:32:32;5.63;;;2.25;;
48034;SDS011;33812;46.480;6.834;2022-11-20T14:36:38;7.70;;;2.43;;
48034;SDS011;33812;46.480;6.834;2022-11-20T14:40:39;9.27;;;1.88;;
48034;SDS011;33812;46.480;6.834;2022-11-20T14:44:42;8.88;;;2.50;;
48034;SDS011;33812;46.480;6.834;2022-11-20T14:48:45;7.07;;;2.22;;
48034;SDS011;33812;46.480;6.834;2022-11-20T14:52:53;5.65;;;2.28;;
48034;SDS011;33812;46.480;6.834;2022-11-20T14:56:57;4.32;;;1.30;;
48034;SDS011;33812;46.480;6.834;2022-11-20T15:01:01;4.22;;;1.52;;
48034;SDS011;33812;46.480;6.834;2022-11-20T15:05:05;10.25;;;1.75;;
48034;SDS011;33812;46.480;6.834;2022-11-20T15:09:14;9.00;;;2.10;;
48034;SDS011;33812;46.480;6.834;2022-11-20T15:13:17;6.88;;;1.88;;
48034;SDS011;33812;46.480;6.834;2022-11-20T15:17:25;13.43;;;1.65;;
48034;SDS011;33812;46.480;6.834;2022-11-20T15:21:27;7.55;;;1.60;;
48034;SDS011;33812;46.480;6.834;2022-11-20T15:25:30;9.38;;;1.30;;
48034;SDS011;33812;46.480;6.834;2022-11-20T15:29:32;7.75;;;2.03;;
48034;SDS011;33812;46.480;6.834;2022-11-20T15:33:34;14.75;;;1.73;;
48034;SDS011;33812;46.480;6.834;2022-11-20T15:37:35;14.27;;;2.20;;
48034;SDS011;33812;46.480;6.834;2022-11-20T15:41:39;9.35;;;1.73;;
48034;SDS011;33812;46.480;6.834;2022-11-20T15:45:41;9.88;;;1.80;;
48034;SDS011;33812;46.480;6.834;2022-11-20T15:49:45;9.27;;;1.90;;
48034;SDS011;33812;46.480;6.834;2022-11-20T15:53:48;8.82;;;1.98;;
48034;SDS011;33812;46.480;6.834;2022-11-20T15:57:51;14.93;;;2.30;;
48034;SDS011;33812;46.480;6.834;2022-11-20T16:01:53;9.85;;;1.83;;
48034;SDS011;33812;46.480;6.834;2022-11-20T16:05:55;9.80;;;2.25;;
48034;SDS011;33812;46.480;6.834;2022-11-20T16:09:57;7.00;;;1.77;;
48034;SDS011;33812;46.480;6.834;2022-11-20T16:14:00;10.70;;;4.40;;
48034;SDS011;33812;46.480;6.834;2022-11-20T16:18:20;14.38;;;2.45;;
48034;SDS011;33812;46.480;6.834;2022-11-20T16:22:23;10.70;;;2.70;;
48034;SDS011;33812;46.480;6.834;2022-11-20T16:26:24;10.43;;;3.08;;
48034;SDS011;33812;46.480;6.834;2022-11-20T16:30:27;17.65;;;4.18;;
48034;SDS011;33812;46.480;6.834;2022-11-20T16:34:29;9.30;;;4.80;;
48034;SDS011;33812;46.480;6.834;2022-11-20T16:38:31;15.02;;;7.22;;
48034;SDS011;33812;46.480;6.834;2022-11-20T16:42:34;5.53;;;3.35;;
48034;SDS011;33812;46.480;6.834;2022-11-20T16:46:37;10.18;;;3.72;;
48034;SDS011;33812;46.480;6.834;2022-11-20T16:50:44;5.43;;;2.88;;
48034;SDS011;33812;46.480;6.834;2022-11-20T16:54:47;4.70;;;2.30;;
48034;SDS011;33812;46.480;6.834;2022-11-20T16:58:49;13.75;;;2.92;;
48034;SDS011;33812;46.480;6.834;2022-11-20T17:02:53;22.42;;;2.60;;
48034;SDS011;33812;46.480;6.834;2022-11-20T17:06:55;5.40;;;2.42;;
48034;SDS011;33812;46.480;6.834;2022-11-20T17:11:03;10.80;;;2.47;;
48034;SDS011;33812;46.480;6.834;2022-11-20T17:15:06;8.05;;;2.00;;
48034;SDS011;33812;46.480;6.834;2022-11-20T17:19:10;6.15;;;2.10;;
48034;SDS011;33812;46.480;6.834;2022-11-20T17:23:12;6.75;;;2.25;;
48034;SDS011;33812;46.480;6.834;2022-11-20T17:27:13;7.35;;;1.83;;
48034;SDS011;33812;46.480;6.834;2022-11-20T17:31:15;6.35;;;2.20;;
48034;SDS011;33812;46.480;6.834;2022-11-20T17:35:19;8.43;;;1.90;;
48034;SDS011;33812;46.480;6.834;2022-11-20T17:39:21;5.30;;;1.90;;
48034;SDS011;33812;46.480;6.834;2022-11-20T17:43:22;7.93;;;1.65;;
48034;SDS011;33812;46.480;6.834;2022-11-20T17:47:24;9.88;;;2.78;;
48034;SDS011;33812;46.480;6.834;2022-11-20T17:51:28;8.02;;;1.90;;
48034;SDS011;33812;46.480;6.834;2022-11-20T17:55:31;5.57;;;1.77;;
48034;SDS011;33812;46.480;6.834;2022-11-20T17:59:54;5.15;;;1.58;;
48034;SDS011;33812;46.480;6.834;2022-11-20T18:03:56;9.82;;;1.67;;
48034;SDS011;33812;46.480;6.834;2022-11-20T18:07:59;21.08;;;4.47;;
48034;SDS011;33812;46.480;6.834;2022-11-20T18:12:00;49.13;;;6.47;;
48034;SDS011;33812;46.480;6.834;2022-11-20T18:16:05;31.50;;;6.30;;
48034;SDS011;33812;46.480;6.834;2022-11-20T18:24:11;114.57;;;20.90;;
48034;SDS011;33812;46.480;6.834;2022-11-20T18:28:12;102.65;;;20.90;;
48034;SDS011;33812;46.480;6.834;2022-11-20T18:32:14;94.28;;;17.88;;
48034;SDS011;33812;46.480;6.834;2022-11-20T18:36:16;86.82;;;18.80;;
48034;SDS011;33812;46.480;6.834;2022-11-20T18:40:21;77.88;;;16.38;;
48034;SDS011;33812;46.480;6.834;2022-11-20T18:44:23;65.90;;;14.45;;
48034;SDS011;33812;46.480;6.834;2022-11-20T18:48:43;69.90;;;14.68;;
48034;SDS011;33812;46.480;6.834;2022-11-20T18:52:45;61.78;;;13.00;;
48034;SDS011;33812;46.480;6.834;2022-11-20T18:56:48;47.90;;;12.30;;
48034;SDS011;33812;46.480;6.834;2022-11-20T19:00:50;50.20;;;11.95;;
48034;SDS011;33812;46.480;6.834;2022-11-20T19:04:52;50.55;;;12.20;;
48034;SDS011;33812;46.480;6.834;2022-11-20T19:08:54;45.90;;;11.15;;
48034;SDS011;33812;46.480;6.834;2022-11-20T19:12:57;42.75;;;10.40;;
48034;SDS011;33812;46.480;6.834;2022-11-20T19:16:59;50.20;;;11.73;;
48034;SDS011;33812;46.480;6.834;2022-11-20T19:21:05;40.30;;;8.95;;
48034;SDS011;33812;46.480;6.834;2022-11-20T19:25:07;27.67;;;6.95;;
48034;SDS011;33812;46.480;6.834;2022-11-20T19:29:11;20.42;;;5.80;;
48034;SDS011;33812;46.480;6.834;2022-11-20T19:33:14;18.00;;;5.65;;
48034;SDS011;33812;46.480;6.834;2022-11-20T19:37:16;23.60;;;5.43;;
48034;SDS011;33812;46.480;6.834;2022-11-20T19:41:18;29.17;;;6.68;;
48034;SDS011;33812;46.480;6.834;2022-11-20T19:45:22;20.27;;;5.55;;
48034;SDS011;33812;46.480;6.834;2022-11-20T19:49:24;20.55;;;5.05;;
48034;SDS011;33812;46.480;6.834;2022-11-20T19:53:25;21.20;;;4.18;;
48034;SDS011;33812;46.480;6.834;2022-11-20T19:57:30;16.63;;;4.70;;
48034;SDS011;33812;46.480;6.834;2022-11-20T20:01:33;23.65;;;5.30;;
48034;SDS011;33812;46.480;6.834;2022-11-20T20:05:35;25.80;;;5.00;;
48034;SDS011;33812;46.480;6.834;2022-11-20T20:09:37;19.80;;;5.50;;
48034;SDS011;33812;46.480;6.834;2022-11-20T20:13:39;20.02;;;5.43;;
48034;SDS011;33812;46.480;6.834;2022-11-20T20:17:43;14.73;;;4.70;;
48034;SDS011;33812;46.480;6.834;2022-11-20T20:21:45;13.38;;;3.65;;
48034;SDS011;33812;46.480;6.834;2022-11-20T20:25:48;12.75;;;4.07;;
48034;SDS011;33812;46.480;6.834;2022-11-20T20:29:50;22.00;;;3.97;;
48034;SDS011;33812;46.480;6.834;2022-11-20T20:33:53;18.55;;;3.92;;
48034;SDS011;33812;46.480;6.834;2022-11-20T20:37:56;14.67;;;3.17;;
48034;SDS011;33812;46.480;6.834;2022-11-20T20:41:57;11.55;;;3.00;;
48034;SDS011;33812;46.480;6.834;2022-11-20T20:45:59;12.93;;;3.42;;
48034;SDS011;33812;46.480;6.834;2022-11-20T20:50:03;11.63;;;4.55;;
48034;SDS011;33812;46.480;6.834;2022-11-20T20:54:05;13.73;;;4.85;;
48034;SDS011;33812;46.480;6.834;2022-11-20T20:58:07;14.93;;;4.05;;
48034;SDS011;33812;46.480;6.834;2022-11-20T21:02:09;8.27;;;3.55;;
48034;SDS011;33812;46.480;6.834;2022-11-20T21:06:12;9.35;;;3.22;;
48034;SDS011;33812;46.480;6.834;2022-11-20T21:10:14;7.57;;;3.45;;
48034;SDS011;33812;46.480;6.834;2022-11-20T21:14:16;461.70;;;21.83;;
48034;SDS011;33812;46.480;6.834;2022-11-20T21:18:19;5.82;;;2.55;;
48034;SDS011;33812;46.480;6.834;2022-11-20T21:22:23;7.18;;;2.78;;
48034;SDS011;33812;46.480;6.834;2022-11-20T21:26:25;8.93;;;3.03;;
48034;SDS011;33812;46.480;6.834;2022-11-20T21:30:27;9.18;;;2.80;;
48034;SDS011;33812;46.480;6.834;2022-11-20T21:34:28;5.63;;;2.10;;
48034;SDS011;33812;46.480;6.834;2022-11-20T21:38:31;6.57;;;2.47;;
48034;SDS011;33812;46.480;6.834;2022-11-20T21:42:33;6.07;;;2.67;;
48034;SDS011;33812;46.480;6.834;2022-11-20T21:46:36;8.80;;;3.53;;
48034;SDS011;33812;46.480;6.834;2022-11-20T21:50:39;7.65;;;2.25;;
48034;SDS011;33812;46.480;6.834;2022-11-20T21:54:42;8.30;;;3.67;;
48034;SDS011;33812;46.480;6.834;2022-11-20T21:58:44;5.18;;;2.10;;
48034;SDS011;33812;46.480;6.834;2022-11-20T22:02:46;5.00;;;2.50;;
48034;SDS011;33812;46.480;6.834;2022-11-20T22:06:48;8.52;;;2.95;;
48034;SDS011;33812;46.480;6.834;2022-11-20T22:10:55;4.18;;;1.80;;
48034;SDS011;33812;46.480;6.834;2022-11-20T22:14:58;5.70;;;1.98;;
48034;SDS011;33812;46.480;6.834;2022-11-20T22:18:59;3.47;;;1.45;;
48034;SDS011;33812;46.480;6.834;2022-11-20T22:23:01;6.18;;;2.05;;
48034;SDS011;33812;46.480;6.834;2022-11-20T22:27:06;10.30;;;2.92;;
48034;SDS011;33812;46.480;6.834;2022-11-20T22:31:08;6.57;;;2.20;;
48034;SDS011;33812;46.480;6.834;2022-11-20T22:35:11;4.85;;;1.88;;
48034;SDS011;33812;46.480;6.834;2022-11-20T22:39:13;6.57;;;2.35;;
48034;SDS011;33812;46.480;6.834;2022-11-20T22:43:16;8.98;;;2.85;;
48034;SDS011;33812;46.480;6.834;2022-11-20T22:47:18;7.57;;;2.17;;
48034;SDS011;33812;46.480;6.834;2022-11-20T22:51:21;7.10;;;2.00;;
48034;SDS011;33812;46.480;6.834;2022-11-20T22:55:23;5.45;;;1.67;;
48034;SDS011;33812;46.480;6.834;2022-11-20T22:59:26;4.93;;;1.77;;
48034;SDS011;33812;46.480;6.834;2022-11-20T23:03:28;6.38;;;2.25;;
48034;SDS011;33812;46.480;6.834;2022-11-20T23:07:30;4.75;;;1.88;;
48034;SDS011;33812;46.480;6.834;2022-11-20T23:11:32;4.15;;;1.90;;
48034;SDS011;33812;46.480;6.834;2022-11-20T23:15:35;6.25;;;1.83;;
48034;SDS011;33812;46.480;6.834;2022-11-20T23:19:37;5.30;;;1.90;;
48034;SDS011;33812;46.480;6.834;2022-11-20T23:23:39;4.28;;;1.60;;
48034;SDS011;33812;46.480;6.834;2022-11-20T23:27:41;2.65;;;1.33;;
48034;SDS011;33812;46.480;6.834;2022-11-20T23:31:44;5.43;;;1.70;;
48034;SDS011;33812;46.480;6.834;2022-11-20T23:35:46;4.28;;;1.73;;
48034;SDS011;33812;46.480;6.834;2022-11-20T23:39:48;5.43;;;1.67;;
48034;SDS011;33812;46.480;6.834;2022-11-20T23:43:49;5.22;;;1.80;;
48034;SDS011;33812;46.480;6.834;2022-11-20T23:47:53;5.60;;;1.80;;
48034;SDS011;33812;46.480;6.834;2022-11-20T23:51:55;6.68;;;1.95;;
48034;SDS011;33812;46.480;6.834;2022-11-20T23:55:57;6.60;;;2.08;;
